Time;durP1;ratioP1;P1;durP2;ratioP2;P2;SDS_P1;SDS_P2;PMS_P1;PMS_P2;Temp;Humidity;BMP_temperature;BMP_pressure;BME280_temperature;BME280_humidity;BME280_pressure;Samples;Min_cycle;Max_cycle;Signal;HPM_P1;HPM_P2
2023/09/26 00:02:22;;;;;;;3.70;3.43;;;13.50;99.90;;;;;;5041650;28;20235;-82
2023/09/26 00:04:48;;;;;;;5.30;3.90;;;13.50;99.90;;;;;;5063408;28;20183;-81
2023/09/26 00:07:13;;;;;;;4.00;3.70;;;13.50;99.90;;;;;;5061114;28;20229;-80
2023/09/26 00:09:40;;;;;;;4.27;3.50;;;13.50;99.90;;;;;;5065192;28;20194;-82
2023/09/26 00:12:05;;;;;;;7.70;3.83;;;13.40;99.90;;;;;;5077479;28;20203;-80
2023/09/26 00:14:33;;;;;;;3.40;3.20;;;13.40;99.90;;;;;;5060080;28;20172;-80
2023/09/26 00:16:59;;;;;;;3.87;3.57;;;13.50;99.90;;;;;;5064343;28;20172;-79
2023/09/26 00:19:25;;;;;;;4.77;3.50;;;13.40;99.90;;;;;;5060710;28;20164;-81
2023/09/26 00:21:51;;;;;;;3.73;3.50;;;13.50;99.90;;;;;;5060687;28;20171;-79
2023/09/26 00:24:17;;;;;;;5.93;4.10;;;13.50;99.90;;;;;;5061803;28;20167;-82
2023/09/26 00:26:42;;;;;;;4.30;3.90;;;13.60;99.90;;;;;;5042054;28;20176;-81
2023/09/26 00:29:09;;;;;;;4.33;3.87;;;13.70;99.90;;;;;;5060313;28;20205;-80
2023/09/26 00:31:35;;;;;;;3.97;3.67;;;13.80;99.90;;;;;;5060268;28;20290;-81
2023/09/26 00:34:01;;;;;;;4.47;4.10;;;13.80;99.90;;;;;;5060476;28;20728;-80
2023/09/26 00:36:26;;;;;;;5.83;3.93;;;13.90;99.90;;;;;;5060744;28;20172;-81
2023/09/26 00:38:52;;;;;;;6.07;3.90;;;13.90;99.90;;;;;;5067148;28;20179;-80
2023/09/26 00:41:18;;;;;;;4.27;3.87;;;13.90;99.90;;;;;;5066051;28;20519;-79
2023/09/26 00:43:43;;;;;;;7.97;4.47;;;13.90;99.90;;;;;;5061356;28;20669;-81
2023/09/26 00:46:11;;;;;;;3.83;3.27;;;13.90;99.90;;;;;;5041129;28;20658;-81
2023/09/26 00:48:38;;;;;;;3.97;3.67;;;13.90;99.90;;;;;;5068238;28;20171;-81
2023/09/26 00:51:06;;;;;;;4.27;3.50;;;13.90;99.90;;;;;;5075288;28;20198;-80
2023/09/26 00:53:32;;;;;;;4.33;3.77;;;13.90;99.90;;;;;;5070943;28;20523;-82
2023/09/26 00:55:59;;;;;;;4.33;3.60;;;13.90;99.90;;;;;;5040085;28;20172;-82
2023/09/26 00:58:25;;;;;;;4.70;3.67;;;13.90;99.90;;;;;;5056422;28;20705;-80
2023/09/26 01:00:55;;;;;;;4.30;3.90;;;13.90;99.90;;;;;;5056474;28;20222;-81
2023/09/26 01:03:21;;;;;;;3.47;3.27;;;13.90;99.90;;;;;;5065845;28;20243;-83
2023/09/26 01:05:47;;;;;;;3.70;3.40;;;13.90;99.90;;;;;;5038772;28;20203;-82
2023/09/26 01:08:13;;;;;;;4.93;3.60;;;13.90;99.90;;;;;;5056290;28;20202;-83
2023/09/26 01:10:39;;;;;;;4.23;3.80;;;13.90;99.90;;;;;;5073894;28;20156;-82
2023/09/26 01:13:05;;;;;;;4.30;3.60;;;13.90;99.90;;;;;;5074048;28;20299;-81
2023/09/26 01:15:39;;;;;;;4.60;4.20;;;13.90;99.90;;;;;;5063872;28;20172;-81
2023/09/26 01:18:13;;;;;;;4.20;3.80;;;14.00;99.90;;;;;;5056953;28;20168;-80
2023/09/26 01:20:40;;;;;;;4.53;4.10;;;14.60;99.90;;;;;;5039897;28;20186;-80
2023/09/26 01:23:06;;;;;;;4.53;4.13;;;13.90;99.90;;;;;;5056793;28;20191;-81
2023/09/26 01:25:35;;;;;;;6.00;4.10;;;13.90;99.90;;;;;;5056014;28;20172;-82
2023/09/26 01:28:06;;;;;;;4.47;4.03;;;13.80;99.90;;;;;;5037778;28;20651;-81
2023/09/26 01:30:37;;;;;;;3.80;3.50;;;13.70;99.90;;;;;;5056291;28;20156;-81
2023/09/26 01:33:05;;;;;;;4.80;3.93;;;13.70;99.90;;;;;;5055914;28;20208;-81
2023/09/26 01:35:31;;;;;;;4.43;4.03;;;13.60;99.90;;;;;;5055712;28;20528;-81
2023/09/26 01:37:57;;;;;;;4.23;3.83;;;13.60;99.90;;;;;;5037520;28;20199;-81
2023/09/26 01:40:24;;;;;;;5.23;4.20;;;13.60;99.90;;;;;;5037765;28;20297;-81
2023/09/26 01:42:50;;;;;;;5.77;4.43;;;13.50;99.90;;;;;;5055661;28;20182;-82
2023/09/26 01:45:17;;;;;;;4.10;3.77;;;13.60;99.90;;;;;;5056136;28;20187;-80
2023/09/26 01:47:45;;;;;;;6.83;4.50;;;13.50;99.90;;;;;;5055748;28;20180;-80
2023/09/26 01:50:11;;;;;;;4.33;3.93;;;13.40;99.90;;;;;;5055998;28;20172;-81
2023/09/26 01:52:37;;;;;;;4.50;4.20;;;13.40;99.90;;;;;;5056379;28;20202;-80
2023/09/26 01:55:05;;;;;;;4.77;4.47;;;13.40;99.90;;;;;;5063525;28;20211;-79
2023/09/26 01:57:33;;;;;;;6.97;4.17;;;13.40;99.90;;;;;;5073941;28;20175;-81
2023/09/26 02:00:11;;;;;;;4.23;3.93;;;13.40;99.90;;;;;;5067326;28;20223;-80
2023/09/26 02:02:44;;;;;;;4.60;4.20;;;13.30;99.90;;;;;;5057911;28;20227;-84
2023/09/26 02:05:13;;;;;;;3.90;3.60;;;13.30;99.90;;;;;;5075183;28;20163;-80
2023/09/26 02:07:39;;;;;;;4.60;4.27;;;13.30;99.90;;;;;;5075275;28;20175;-80
2023/09/26 02:10:05;;;;;;;4.20;3.90;;;13.40;99.90;;;;;;5075291;28;20167;-80
2023/09/26 02:12:33;;;;;;;4.27;3.83;;;13.30;99.90;;;;;;5076875;28;20546;-79
2023/09/26 02:15:01;;;;;;;4.03;3.57;;;13.40;99.90;;;;;;5076998;28;20688;-81
2023/09/26 02:17:26;;;;;;;4.03;3.63;;;13.40;99.90;;;;;;5093131;28;20174;-81
2023/09/26 02:19:52;;;;;;;3.93;3.63;;;13.40;99.90;;;;;;5082170;28;20167;-80
2023/09/26 02:22:18;;;;;;;5.83;4.20;;;13.40;99.90;;;;;;5087948;28;20171;-81
2023/09/26 02:24:44;;;;;;;3.87;3.53;;;13.40;99.90;;;;;;5078598;28;20163;-80
2023/09/26 02:27:10;;;;;;;5.03;3.90;;;13.40;99.90;;;;;;5093359;28;20644;-80
2023/09/26 02:29:36;;;;;;;4.23;3.87;;;13.50;99.90;;;;;;5092622;28;20179;-81
2023/09/26 02:32:02;;;;;;;4.30;3.90;;;13.30;99.90;;;;;;5088840;28;20210;-81
2023/09/26 02:34:28;;;;;;;4.50;4.07;;;13.40;99.90;;;;;;5081785;28;20171;-81
2023/09/26 02:36:53;;;;;;;5.50;3.90;;;13.40;99.90;;;;;;5075821;28;20182;-81
2023/09/26 02:39:19;;;;;;;4.40;3.67;;;13.40;99.90;;;;;;5076173;28;20167;-80
2023/09/26 02:41:45;;;;;;;4.10;3.80;;;13.40;99.90;;;;;;5075874;28;20167;-82
2023/09/26 02:44:11;;;;;;;4.20;3.80;;;13.40;99.90;;;;;;5075913;28;20179;-82
2023/09/26 02:46:36;;;;;;;5.47;3.60;;;13.40;99.90;;;;;;5080348;28;20167;-82
2023/09/26 02:49:03;;;;;;;5.93;3.83;;;13.40;99.90;;;;;;5083789;28;20233;-82
2023/09/26 02:51:29;;;;;;;4.30;3.90;;;13.40;99.90;;;;;;5089762;28;20203;-81
2023/09/26 02:53:55;;;;;;;4.97;4.23;;;13.50;99.90;;;;;;5077325;28;20618;-82
2023/09/26 02:56:21;;;;;;;4.10;3.80;;;13.40;99.90;;;;;;5075306;28;20217;-82
2023/09/26 02:58:47;;;;;;;3.97;3.67;;;13.30;99.90;;;;;;5074255;28;20175;-84
2023/09/26 03:01:17;;;;;;;5.00;4.50;;;13.30;99.90;;;;;;5083409;28;20239;-81
2023/09/26 03:03:43;;;;;;;4.40;4.10;;;13.30;99.90;;;;;;5083310;28;20501;-80
2023/09/26 03:06:09;;;;;;;5.03;4.50;;;13.20;99.90;;;;;;5076929;28;20175;-81
2023/09/26 03:08:34;;;;;;;5.03;4.57;;;13.20;99.90;;;;;;5074580;28;20639;-81
2023/09/26 03:11:00;;;;;;;5.40;3.90;;;13.10;99.90;;;;;;5076300;28;20171;-82
2023/09/26 03:13:33;;;;;;;4.70;4.17;;;13.10;99.90;;;;;;5056804;28;20187;-81
2023/09/26 03:15:59;;;;;;;4.47;4.13;;;13.10;99.90;;;;;;5056417;28;20184;-81
2023/09/26 03:18:28;;;;;;;4.43;4.13;;;13.10;99.90;;;;;;5074714;28;20630;-81
2023/09/26 03:20:54;;;;;;;4.13;3.83;;;13.10;99.90;;;;;;5074208;28;20195;-80
2023/09/26 03:23:21;;;;;;;3.90;3.70;;;13.00;99.90;;;;;;5074302;28;20175;-79
2023/09/26 03:25:47;;;;;;;6.27;4.57;;;13.00;99.90;;;;;;5074535;28;20186;-81
2023/09/26 03:28:13;;;;;;;4.47;4.00;;;13.00;99.90;;;;;;5074279;28;20176;-81
2023/09/26 03:30:44;;;;;;;4.40;4.00;;;13.00;99.90;;;;;;5074001;28;20206;-81
2023/09/26 03:33:10;;;;;;;5.20;4.70;;;13.00;99.90;;;;;;5039379;28;20219;-80
2023/09/26 03:35:36;;;;;;;5.10;4.60;;;13.00;99.90;;;;;;5073951;28;20531;-79
2023/09/26 03:38:02;;;;;;;4.93;4.53;;;13.00;99.90;;;;;;5073781;28;20182;-80
2023/09/26 03:40:28;;;;;;;5.63;5.00;;;12.90;99.90;;;;;;5073863;28;20190;-80
2023/09/26 03:42:54;;;;;;;7.13;5.07;;;13.00;99.90;;;;;;5073827;28;20163;-81
2023/09/26 03:45:21;;;;;;;6.43;5.00;;;12.90;99.90;;;;;;5074172;28;20262;-80
2023/09/26 03:47:47;;;;;;;7.37;4.97;;;12.90;99.90;;;;;;5056264;28;20577;-80
2023/09/26 03:50:13;;;;;;;7.67;5.47;;;12.90;99.90;;;;;;5073865;28;20167;-80
2023/09/26 03:52:39;;;;;;;4.93;4.40;;;12.80;99.90;;;;;;5074113;28;20201;-81
2023/09/26 03:55:06;;;;;;;5.50;4.90;;;12.80;99.90;;;;;;5094608;28;20196;-81
2023/09/26 03:57:35;;;;;;;6.33;4.90;;;12.80;99.90;;;;;;5077302;28;20167;-80
2023/09/26 04:00:12;;;;;;;6.30;4.60;;;12.80;99.90;;;;;;5074566;28;20167;-81
2023/09/26 04:02:38;;;;;;;6.07;4.30;;;12.70;99.90;;;;;;5057055;28;20238;-81
2023/09/26 04:05:05;;;;;;;4.60;4.20;;;12.70;99.90;;;;;;5093140;28;20197;-80
2023/09/26 04:07:31;;;;;;;5.20;4.53;;;12.70;99.90;;;;;;5071796;28;20167;-81
2023/09/26 04:09:57;;;;;;;5.10;4.10;;;12.60;99.90;;;;;;5077260;28;20673;-79
2023/09/26 04:12:23;;;;;;;4.60;4.20;;;12.60;99.90;;;;;;5074026;28;20257;-80
2023/09/26 04:14:48;;;;;;;4.20;3.90;;;12.50;99.90;;;;;;5074223;28;20171;-80
2023/09/26 04:17:14;;;;;;;6.00;4.40;;;12.50;99.90;;;;;;5073939;28;20218;-81
2023/09/26 04:19:40;;;;;;;4.10;3.70;;;12.50;99.90;;;;;;5072870;28;20171;-80
2023/09/26 04:22:06;;;;;;;4.47;4.17;;;12.50;99.90;;;;;;5059137;28;20179;-81
2023/09/26 04:24:32;;;;;;;3.80;3.50;;;12.50;99.90;;;;;;5077600;28;20171;-81
2023/09/26 04:26:57;;;;;;;4.63;4.30;;;12.50;99.90;;;;;;5077103;28;20539;-80
2023/09/26 04:29:24;;;;;;;7.83;4.10;;;12.50;99.90;;;;;;5077092;28;20636;-79
2023/09/26 04:31:52;;;;;;;4.60;4.30;;;12.50;99.90;;;;;;5058731;28;20577;-78
2023/09/26 04:34:18;;;;;;;6.40;4.30;;;12.70;99.90;;;;;;5059543;28;20292;-81
2023/09/26 04:36:44;;;;;;;4.57;3.70;;;12.50;99.90;;;;;;5077210;28;20195;-78
2023/09/26 04:39:10;;;;;;;4.27;3.63;;;13.10;99.90;;;;;;5059048;28;20175;-82
2023/09/26 04:41:36;;;;;;;4.30;3.57;;;12.50;99.90;;;;;;5077494;28;20171;-80
2023/09/26 04:44:01;;;;;;;5.40;4.37;;;12.50;99.90;;;;;;5077375;28;20194;-80
2023/09/26 04:46:27;;;;;;;5.37;4.27;;;12.50;99.90;;;;;;5062084;28;20241;-80
2023/09/26 04:48:53;;;;;;;4.20;3.83;;;12.50;99.90;;;;;;5088417;28;20186;-83
2023/09/26 04:51:20;;;;;;;4.70;3.57;;;12.50;99.90;;;;;;5092560;28;20238;-82
2023/09/26 04:53:46;;;;;;;3.90;3.57;;;12.50;99.90;;;;;;5096295;28;20181;-80
2023/09/26 04:56:11;;;;;;;4.40;3.90;;;12.50;99.90;;;;;;5067577;28;20189;-79
2023/09/26 04:58:38;;;;;;;4.47;4.07;;;12.60;99.90;;;;;;5077444;28;20268;-81
2023/09/26 05:01:15;;;;;;;5.00;4.60;;;12.50;99.90;;;;;;5076696;28;20230;-81
2023/09/26 05:03:42;;;;;;;5.00;4.60;;;12.50;99.90;;;;;;5077073;28;20172;-81
2023/09/26 05:06:09;;;;;;;4.87;4.47;;;12.40;99.90;;;;;;5084807;28;20634;-82
2023/09/26 05:08:35;;;;;;;4.83;4.40;;;12.40;99.90;;;;;;5091923;28;20177;-80
2023/09/26 05:11:00;;;;;;;4.90;4.50;;;12.70;99.90;;;;;;5078952;28;20178;-79
2023/09/26 05:13:26;;;;;;;4.43;4.13;;;12.50;99.90;;;;;;5077049;28;20241;-82
2023/09/26 05:15:52;;;;;;;5.20;4.80;;;12.60;99.90;;;;;;5076424;28;20181;-79
2023/09/26 05:18:18;;;;;;;6.23;5.60;;;12.70;99.90;;;;;;5076011;28;20242;-79
2023/09/26 05:20:44;;;;;;;5.30;4.80;;;12.80;99.90;;;;;;5076046;28;20173;-81
2023/09/26 05:23:10;;;;;;;5.40;4.90;;;12.90;99.90;;;;;;5076372;28;20172;-80
2023/09/26 05:25:36;;;;;;;5.63;5.10;;;12.90;99.90;;;;;;5076656;28;20175;-81
2023/09/26 05:28:02;;;;;;;5.80;4.83;;;13.00;99.90;;;;;;5076751;28;20531;-77
2023/09/26 05:30:28;;;;;;;5.80;5.20;;;13.00;99.90;;;;;;5065532;28;20175;-81
2023/09/26 05:32:53;;;;;;;5.13;4.73;;;13.00;99.90;;;;;;5084016;28;20201;-82
2023/09/26 05:35:19;;;;;;;6.30;4.70;;;13.00;99.90;;;;;;5059442;28;20649;-83
2023/09/26 05:37:45;;;;;;;4.80;4.40;;;13.10;99.90;;;;;;5077758;28;20589;-81
2023/09/26 05:40:11;;;;;;;6.47;4.60;;;13.10;99.90;;;;;;5065666;28;20167;-82
2023/09/26 05:42:38;;;;;;;5.37;4.87;;;13.10;99.90;;;;;;5085015;28;20175;-81
2023/09/26 05:45:06;;;;;;;6.00;4.80;;;13.20;99.90;;;;;;5064447;28;20175;-82
2023/09/26 05:47:32;;;;;;;4.97;4.50;;;13.20;99.90;;;;;;5077112;28;20761;-80
2023/09/26 05:49:57;;;;;;;5.67;5.07;;;13.20;99.90;;;;;;5076693;28;20207;-83
2023/09/26 05:52:23;;;;;;;6.20;4.93;;;13.30;99.90;;;;;;5058240;28;20234;-81
2023/09/26 05:54:49;;;;;;;5.57;5.07;;;13.30;99.90;;;;;;5076812;28;20231;-82
2023/09/26 05:57:15;;;;;;;5.27;4.67;;;13.30;99.90;;;;;;5076376;28;20207;-82
2023/09/26 05:59:41;;;;;;;9.53;5.20;;;13.40;99.90;;;;;;5076108;28;20176;-80
2023/09/26 06:02:14;;;;;;;7.67;5.33;;;13.40;99.90;;;;;;5075726;28;20214;-80
2023/09/26 06:04:44;;;;;;;8.70;5.00;;;13.40;99.90;;;;;;5076006;28;20171;-81
2023/09/26 06:07:10;;;;;;;5.10;4.50;;;13.60;99.90;;;;;;5075898;28;20190;-79
2023/09/26 06:09:36;;;;;;;6.50;4.83;;;13.80;99.90;;;;;;5075601;28;20174;-80
2023/09/26 06:12:04;;;;;;;6.67;5.10;;;13.90;99.90;;;;;;5076350;28;20203;-81
2023/09/26 06:14:33;;;;;;;5.90;5.30;;;13.70;99.90;;;;;;5058271;28;20183;-81
2023/09/26 06:17:00;;;;;;;5.30;4.80;;;13.80;99.90;;;;;;5076804;28;20186;-80
2023/09/26 06:19:25;;;;;;;8.23;4.80;;;14.00;99.90;;;;;;5077644;28;20189;-79
2023/09/26 06:21:51;;;;;;;5.23;4.73;;;13.80;99.90;;;;;;5079778;28;20544;-79
2023/09/26 06:24:17;;;;;;;5.30;4.90;;;13.90;99.90;;;;;;5076360;28;20179;-80
2023/09/26 06:26:43;;;;;;;6.83;5.90;;;13.90;99.90;;;;;;5075730;28;20653;-78
2023/09/26 06:29:09;;;;;;;5.80;5.20;;;14.10;99.90;;;;;;5076172;28;20171;-79
2023/09/26 06:31:35;;;;;;;6.23;4.87;;;14.10;99.90;;;;;;5059880;28;20603;-80
2023/09/26 06:34:01;;;;;;;6.27;5.17;;;14.20;99.90;;;;;;5075834;28;20232;-81
2023/09/26 06:36:30;;;;;;;7.33;4.77;;;14.20;99.90;;;;;;5057254;28;20191;-81
2023/09/26 06:38:59;;;;;;;7.70;5.70;;;14.30;99.90;;;;;;5076759;28;20668;-81
2023/09/26 06:41:26;;;;;;;5.80;5.20;;;14.40;99.90;;;;;;5078541;28;20168;-83
2023/09/26 06:43:51;;;;;;;6.53;4.77;;;14.60;99.90;;;;;;5081234;28;20195;-81
2023/09/26 06:46:17;;;;;;;5.50;4.90;;;14.60;99.90;;;;;;5089545;28;20170;-81
2023/09/26 06:48:43;;;;;;;6.47;4.80;;;14.70;99.90;;;;;;5094805;28;20171;-80
2023/09/26 06:51:09;;;;;;;5.90;4.70;;;14.70;99.90;;;;;;5087831;28;20171;-81
2023/09/26 06:53:36;;;;;;;11.37;5.70;;;14.80;99.90;;;;;;5081635;28;20626;-80
2023/09/26 06:56:03;;;;;;;6.13;5.23;;;14.80;99.90;;;;;;5075592;28;20197;-79
2023/09/26 06:58:29;;;;;;;6.10;5.37;;;14.90;99.90;;;;;;5075695;28;20171;-80
2023/09/26 07:00:55;;;;;;;6.90;5.40;;;15.00;99.90;;;;;;5074917;28;20221;-80
2023/09/26 07:03:21;;;;;;;6.03;5.27;;;15.10;99.90;;;;;;5075299;28;20262;-82
2023/09/26 07:05:47;;;;;;;5.83;5.23;;;15.20;99.90;;;;;;5058314;28;20176;-81
2023/09/26 07:08:14;;;;;;;6.60;5.70;;;15.40;99.90;;;;;;5077201;28;20639;-79
2023/09/26 07:10:45;;;;;;;8.03;5.67;;;15.40;99.90;;;;;;5089188;28;20175;-81
2023/09/26 07:13:13;;;;;;;6.17;5.30;;;15.50;99.90;;;;;;5084303;28;20195;-80
2023/09/26 07:15:40;;;;;;;5.80;5.20;;;15.70;99.90;;;;;;5076737;28;20205;-81
2023/09/26 07:18:09;;;;;;;10.77;5.87;;;15.80;99.90;;;;;;5058183;28;20271;-81
2023/09/26 07:20:56;;;;;;;7.47;5.50;;;15.90;99.90;;;;;;5075284;28;20196;-81
2023/09/26 07:23:21;;;;;;;5.87;5.27;;;16.00;99.90;;;;;;5077916;28;20182;-80
2023/09/26 07:25:47;;;;;;;11.50;5.63;;;16.00;99.90;;;;;;5075243;28;20170;-81
2023/09/26 07:28:13;;;;;;;5.60;5.10;;;16.10;99.90;;;;;;5075899;28;20178;-81
2023/09/26 07:30:39;;;;;;;6.13;4.90;;;16.10;99.90;;;;;;5074572;28;20175;-81
2023/09/26 07:33:07;;;;;;;6.57;5.20;;;16.10;99.90;;;;;;5076873;28;20206;-82
2023/09/26 07:35:33;;;;;;;7.60;4.73;;;16.70;99.90;;;;;;5060612;28;20201;-82
2023/09/26 07:38:00;;;;;;;5.47;4.77;;;15.40;99.90;;;;;;5075586;28;20174;-79
2023/09/26 07:40:26;;;;;;;4.80;4.40;;;16.20;99.90;;;;;;5076010;28;20171;-79
2023/09/26 07:42:52;;;;;;;5.00;4.70;;;16.20;99.90;;;;;;5057407;28;20606;-80
2023/09/26 07:45:19;;;;;;;6.70;4.50;;;16.30;99.90;;;;;;5078749;28;20197;-82
2023/09/26 07:47:45;;;;;;;5.67;4.77;;;16.40;99.90;;;;;;5089655;28;20183;-82
2023/09/26 07:50:10;;;;;;;4.83;4.43;;;16.80;99.90;;;;;;5079400;28;20198;-82
2023/09/26 07:52:37;;;;;;;4.70;4.10;;;16.50;99.90;;;;;;5057226;28;20214;-81
2023/09/26 07:55:05;;;;;;;5.63;4.87;;;16.60;99.90;;;;;;5058283;28;20181;-82
2023/09/26 07:57:31;;;;;;;6.97;4.90;;;16.70;99.90;;;;;;5061203;28;20266;-80
2023/09/26 07:59:58;;;;;;;10.60;4.80;;;16.70;99.90;;;;;;5077756;28;20171;-81
2023/09/26 08:02:23;;;;;;;4.90;4.50;;;16.90;99.90;;;;;;5077909;28;20731;-81
2023/09/26 08:04:49;;;;;;;4.97;4.57;;;17.00;99.90;;;;;;5059623;28;20183;-82
2023/09/26 08:07:15;;;;;;;5.60;4.07;;;17.00;99.90;;;;;;5078217;28;20639;-83
2023/09/26 08:09:41;;;;;;;4.43;4.13;;;17.00;99.90;;;;;;5078577;28;20186;-80
2023/09/26 08:12:07;;;;;;;4.40;4.10;;;17.10;99.90;;;;;;5059762;28;20658;-83
2023/09/26 08:14:33;;;;;;;4.70;4.30;;;17.20;99.90;;;;;;5079277;28;20261;-83
2023/09/26 08:16:59;;;;;;;4.93;4.50;;;17.20;99.90;;;;;;5061121;28;20262;-81
2023/09/26 08:19:25;;;;;;;5.10;4.60;;;17.20;99.90;;;;;;5085166;28;20202;-78
2023/09/26 08:21:51;;;;;;;4.93;4.50;;;17.40;99.90;;;;;;5088704;28;20814;-81
2023/09/26 08:24:16;;;;;;;7.07;4.57;;;17.50;99.90;;;;;;5078841;28;20182;-81
2023/09/26 08:26:42;;;;;;;6.83;4.57;;;17.60;99.90;;;;;;5078767;28;20167;-81
2023/09/26 08:29:08;;;;;;;4.83;4.43;;;17.70;99.90;;;;;;5059860;28;20183;-79
2023/09/26 08:31:35;;;;;;;10.27;4.93;;;17.70;99.90;;;;;;5078272;28;20218;-84
2023/09/26 08:34:02;;;;;;;4.83;4.27;;;17.80;99.90;;;;;;5082269;28;20182;-84
2023/09/26 08:36:29;;;;;;;6.17;4.80;;;17.90;99.90;;;;;;5083294;28;20167;-82
2023/09/26 08:38:56;;;;;;;5.00;4.60;;;18.00;99.90;;;;;;5092720;28;20237;-81
2023/09/26 08:41:24;;;;;;;5.13;4.73;;;18.20;99.90;;;;;;5083718;28;20783;-82
2023/09/26 08:43:50;;;;;;;4.23;3.93;;;18.20;99.90;;;;;;5077708;28;20648;-80
2023/09/26 08:46:17;;;;;;;4.47;4.17;;;18.30;99.90;;;;;;5096514;28;20197;-80
2023/09/26 08:48:43;;;;;;;4.87;4.43;;;18.40;99.90;;;;;;5084109;28;20175;-82
2023/09/26 08:51:09;;;;;;;4.60;4.30;;;18.50;99.90;;;;;;5078445;28;20247;-81
2023/09/26 08:53:35;;;;;;;4.80;4.50;;;18.50;99.90;;;;;;5061450;28;20218;-81
2023/09/26 08:56:02;;;;;;;4.80;4.47;;;18.60;99.90;;;;;;5080540;28;20199;-83
2023/09/26 08:58:29;;;;;;;5.77;4.37;;;18.70;99.90;;;;;;5089612;28;20187;-80
2023/09/26 09:00:55;;;;;;;4.27;3.97;;;18.80;99.90;;;;;;5077853;28;20231;-80
2023/09/26 09:03:21;;;;;;;4.30;4.00;;;18.90;99.90;;;;;;5077260;28;20189;-80
2023/09/26 09:05:46;;;;;;;4.17;3.87;;;19.00;99.90;;;;;;5076973;28;20740;-81
2023/09/26 09:08:20;;;;;;;4.97;4.47;;;19.00;99.90;;;;;;5076806;28;20171;-80
2023/09/26 09:10:56;;;;;;;4.37;3.97;;;19.10;99.90;;;;;;5059735;28;20202;-81
2023/09/26 09:13:27;;;;;;;8.80;4.47;;;19.10;99.90;;;;;;5077623;28;20194;-80
2023/09/26 09:16:13;;;;;;;4.63;4.20;;;19.10;99.90;;;;;;5077301;28;20194;-81
2023/09/26 09:18:50;;;;;;;4.33;4.00;;;19.10;99.90;;;;;;5077601;28;20181;-79
2023/09/26 09:21:31;;;;;;;7.63;4.30;;;19.20;99.90;;;;;;5076600;28;20167;-81
2023/09/26 09:23:58;;;;;;;4.87;4.10;;;19.30;99.90;;;;;;5059055;28;20258;-80
2023/09/26 09:26:28;;;;;;;4.97;4.57;;;19.40;99.90;;;;;;5076293;28;20634;-81
2023/09/26 09:28:55;;;;;;;4.77;4.37;;;19.40;99.90;;;;;;5077630;28;20179;-80
2023/09/26 09:31:22;;;;;;;4.43;4.10;;;19.40;99.90;;;;;;5079028;28;20228;-81
2023/09/26 09:33:55;;;;;;;4.33;4.03;;;19.40;99.90;;;;;;5070199;28;20201;-80
2023/09/26 09:36:22;;;;;;;5.30;4.40;;;19.50;99.90;;;;;;5086672;28;20159;-78
2023/09/26 09:38:48;;;;;;;6.37;4.00;;;19.50;99.90;;;;;;5061107;28;20562;-79
2023/09/26 09:41:14;;;;;;;4.37;4.00;;;19.60;99.90;;;;;;5082484;28;20195;-80
2023/09/26 09:43:40;;;;;;;4.40;4.00;;;19.70;99.90;;;;;;5063702;28;20558;-81
2023/09/26 09:46:08;;;;;;;5.07;4.30;;;19.90;99.90;;;;;;5076269;28;20171;-80
2023/09/26 09:48:43;;;;;;;4.43;4.13;;;19.90;99.90;;;;;;5076435;28;20206;-81
2023/09/26 09:51:14;;;;;;;5.17;3.87;;;19.90;99.90;;;;;;5077147;28;20163;-81
2023/09/26 09:53:52;;;;;;;3.80;3.57;;;20.00;99.90;;;;;;5076115;28;20655;-81
2023/09/26 09:56:20;;;;;;;4.57;4.17;;;20.00;99.90;;;;;;5059008;28;20577;-80
2023/09/26 09:58:50;;;;;;;4.83;4.33;;;20.10;99.90;;;;;;5058450;28;20171;-81
2023/09/26 10:01:20;;;;;;;5.20;4.30;;;20.10;99.90;;;;;;5059591;28;20313;-80
2023/09/26 10:03:52;;;;;;;4.00;3.70;;;20.10;99.90;;;;;;5078227;28;20560;-82
2023/09/26 10:06:18;;;;;;;4.77;3.97;;;20.20;99.90;;;;;;5075989;28;20156;-81
2023/09/26 10:08:46;;;;;;;4.73;3.70;;;20.20;99.90;;;;;;5076467;28;20534;-80
2023/09/26 10:11:12;;;;;;;5.67;3.60;;;20.30;99.90;;;;;;5079846;28;20164;-82
2023/09/26 10:13:39;;;;;;;6.77;4.33;;;20.30;99.90;;;;;;5079834;28;20175;-80
2023/09/26 10:16:14;;;;;;;5.87;4.33;;;20.30;99.90;;;;;;5077329;28;20258;-81
2023/09/26 10:18:41;;;;;;;4.03;3.73;;;20.40;99.90;;;;;;5085883;28;20210;-81
2023/09/26 10:21:27;;;;;;;4.27;3.87;;;20.50;99.90;;;;;;5072355;28;20173;-81
2023/09/26 10:24:07;;;;;;;4.87;4.30;;;20.50;99.90;;;;;;5092899;28;20535;-80
2023/09/26 10:26:36;;;;;;;4.63;4.33;;;20.60;99.90;;;;;;5091836;28;20158;-81
2023/09/26 10:29:26;;;;;;;4.77;4.00;;;20.70;99.90;;;;;;5096861;28;20278;-80
2023/09/26 10:32:04;;;;;;;4.77;4.30;;;20.80;99.90;;;;;;5078182;28;20222;-79
2023/09/26 10:34:36;;;;;;;5.53;4.27;;;20.80;99.90;;;;;;5092973;28;20155;-82
2023/09/26 10:37:06;;;;;;;4.40;4.10;;;20.80;99.90;;;;;;5095374;28;20156;-81
2023/09/26 10:39:37;;;;;;;5.77;4.47;;;20.90;99.90;;;;;;5060572;28;20172;-82
2023/09/26 10:42:10;;;;;;;4.83;4.33;;;20.90;99.90;;;;;;5081264;28;20175;-82
2023/09/26 10:44:37;;;;;;;6.80;3.90;;;20.90;99.90;;;;;;5081455;28;20163;-81
2023/09/26 10:47:04;;;;;;;5.03;4.07;;;21.00;99.90;;;;;;5058084;28;20266;-80
2023/09/26 10:49:34;;;;;;;5.03;4.53;;;20.90;99.90;;;;;;5076393;28;20163;-80
2023/09/26 10:52:03;;;;;;;5.73;4.40;;;20.90;99.90;;;;;;5077664;28;20203;-80
2023/09/26 10:54:30;;;;;;;9.67;4.50;;;21.00;99.90;;;;;;5075744;28;20611;-79
2023/09/26 10:56:58;;;;;;;5.93;4.23;;;21.00;99.90;;;;;;5056611;28;20207;-80
2023/09/26 10:59:27;;;;;;;4.80;4.17;;;20.90;99.90;;;;;;5076439;28;20639;-81
2023/09/26 11:01:57;;;;;;;5.70;4.10;;;21.00;99.90;;;;;;5045421;28;20566;-81
2023/09/26 11:04:29;;;;;;;4.50;4.10;;;21.00;99.90;;;;;;5074899;28;20217;-80
2023/09/26 11:07:05;;;;;;;4.67;4.23;;;21.00;99.90;;;;;;5076720;28;20167;-80
2023/09/26 11:09:37;;;;;;;5.63;5.10;;;21.00;99.90;;;;;;5076815;28;20216;-81
2023/09/26 11:12:04;;;;;;;4.83;4.30;;;21.00;99.90;;;;;;5066387;28;20183;-80
2023/09/26 11:14:29;;;;;;;4.40;4.10;;;21.00;99.90;;;;;;5076385;28;20246;-81
2023/09/26 11:16:55;;;;;;;6.13;4.50;;;20.90;99.90;;;;;;5062702;28;20264;-80
2023/09/26 11:19:27;;;;;;;5.43;4.00;;;21.10;99.90;;;;;;5075527;28;20175;-80
2023/09/26 11:21:57;;;;;;;4.50;4.00;;;21.10;99.90;;;;;;5075329;28;20640;-82
2023/09/26 11:24:32;;;;;;;6.37;4.37;;;21.10;99.90;;;;;;5077973;28;20172;-80
2023/09/26 11:27:04;;;;;;;4.80;4.30;;;21.10;99.90;;;;;;5057179;28;20618;-81
2023/09/26 11:29:32;;;;;;;6.30;4.80;;;21.20;99.90;;;;;;5057306;28;20175;-79
2023/09/26 11:31:57;;;;;;;6.40;5.20;;;21.30;99.90;;;;;;5075129;28;20205;-79
2023/09/26 11:34:24;;;;;;;13.83;10.83;;;21.30;99.90;;;;;;5074434;28;20171;-80
2023/09/26 11:36:50;;;;;;;7.07;5.67;;;21.40;99.90;;;;;;5056100;28;20697;-81
2023/09/26 11:39:20;;;;;;;5.07;4.57;;;21.40;99.90;;;;;;5074130;28;20202;-79
2023/09/26 11:41:47;;;;;;;5.70;3.87;;;21.60;99.90;;;;;;5074472;28;20247;-81
2023/09/26 11:44:17;;;;;;;7.00;4.37;;;21.60;99.90;;;;;;5074703;28;20213;-80
2023/09/26 11:46:48;;;;;;;4.17;3.80;;;21.60;99.90;;;;;;5074201;28;20163;-80
2023/09/26 11:49:15;;;;;;;7.17;4.27;;;21.60;99.90;;;;;;5074431;28;20274;-78
2023/09/26 11:51:42;;;;;;;5.23;3.93;;;21.80;99.90;;;;;;5074608;28;20207;-80
2023/09/26 11:54:09;;;;;;;8.10;4.27;;;22.00;99.90;;;;;;5057565;28;20273;-80
2023/09/26 11:56:36;;;;;;;4.83;4.50;;;21.80;99.90;;;;;;5079011;28;20174;-79
2023/09/26 11:59:04;;;;;;;5.87;4.00;;;21.90;99.90;;;;;;5079345;28;20534;-81
2023/09/26 12:01:34;;;;;;;6.53;4.80;;;21.90;99.90;;;;;;5065263;28;20226;-81
2023/09/26 12:04:05;;;;;;;7.47;4.70;;;21.90;99.90;;;;;;5061487;28;20186;-81
2023/09/26 12:06:31;;;;;;;8.77;4.17;;;21.90;99.90;;;;;;5075649;28;20163;-80
2023/09/26 12:08:57;;;;;;;5.27;4.73;;;21.90;99.90;;;;;;5076582;28;20199;-79
2023/09/26 12:11:24;;;;;;;5.50;4.87;;;21.90;99.90;;;;;;5080622;28;20202;-80
2023/09/26 12:13:50;;;;;;;5.90;4.57;;;21.90;99.90;;;;;;5092272;28;20178;-80
2023/09/26 12:16:16;;;;;;;5.87;4.60;;;21.90;99.90;;;;;;5079413;28;20171;-81
2023/09/26 12:18:41;;;;;;;6.10;4.50;;;21.90;99.90;;;;;;5094144;28;20191;-78
2023/09/26 12:21:08;;;;;;;5.20;4.63;;;21.90;99.90;;;;;;5096012;28;20187;-81
2023/09/26 12:23:34;;;;;;;5.63;4.70;;;21.90;99.90;;;;;;5086145;28;20305;-81
2023/09/26 12:25:59;;;;;;;6.53;4.67;;;21.90;99.90;;;;;;5085607;28;20171;-80
2023/09/26 12:28:25;;;;;;;6.10;4.80;;;22.00;99.90;;;;;;5075714;28;20282;-84
2023/09/26 12:30:52;;;;;;;4.63;4.23;;;22.00;99.90;;;;;;5075823;28;20186;-79
2023/09/26 12:33:19;;;;;;;6.63;4.77;;;22.00;99.90;;;;;;5057764;28;20549;-82
2023/09/26 12:35:45;;;;;;;4.00;3.70;;;22.00;99.90;;;;;;5079692;28;20230;-79
2023/09/26 12:38:11;;;;;;;4.77;4.37;;;22.10;99.90;;;;;;5092770;28;20198;-79
2023/09/26 12:40:37;;;;;;;4.93;4.50;;;22.10;99.90;;;;;;5058750;28;20171;-80
2023/09/26 12:43:04;;;;;;;8.07;4.73;;;22.10;99.90;;;;;;5078081;28;20207;-81
2023/09/26 12:45:30;;;;;;;5.00;4.38;;;22.10;99.90;;;;;;5077906;28;20606;-81
2023/09/26 12:47:56;;;;;;;4.60;4.20;;;22.10;99.90;;;;;;5077755;28;20167;-81